sensor_id;sensor_type;location;lat;lon;timestamp;P1;durP1;ratioP1;P2;durP2;ratioP2
64037;SDS011;54641;50.168;8.492;2022-07-29T00:00:00;5.20;;;2.60;;
64037;SDS011;54641;50.168;8.492;2022-07-29T00:02:33;6.00;;;2.30;;
64037;SDS011;54641;50.168;8.492;2022-07-29T00:05:09;5.10;;;2.50;;
64037;SDS011;54641;50.168;8.492;2022-07-29T00:07:42;3.60;;;2.10;;
64037;SDS011;54641;50.168;8.492;2022-07-29T00:10:14;4.10;;;2.30;;
64037;SDS011;54641;50.168;8.492;2022-07-29T00:12:48;4.60;;;2.50;;
64037;SDS011;54641;50.168;8.492;2022-07-29T00:15:22;4.70;;;2.10;;
64037;SDS011;54641;50.168;8.492;2022-07-29T00:17:54;18.60;;;3.50;;
64037;SDS011;54641;50.168;8.492;2022-07-29T00:20:30;14.90;;;4.10;;
64037;SDS011;54641;50.168;8.492;2022-07-29T00:23:04;11.40;;;3.80;;
64037;SDS011;54641;50.168;8.492;2022-07-29T00:25:44;10.80;;;4.10;;
64037;SDS011;54641;50.168;8.492;2022-07-29T00:28:17;8.60;;;3.40;;
64037;SDS011;54641;50.168;8.492;2022-07-29T00:30:52;5.30;;;3.50;;
64037;SDS011;54641;50.168;8.492;2022-07-29T00:33:26;8.10;;;3.90;;
64037;SDS011;54641;50.168;8.492;2022-07-29T00:35:59;9.00;;;4.40;;
64037;SDS011;54641;50.168;8.492;2022-07-29T00:38:30;12.20;;;4.10;;
64037;SDS011;54641;50.168;8.492;2022-07-29T00:41:01;7.70;;;3.90;;
64037;SDS011;54641;50.168;8.492;2022-07-29T00:43:31;7.30;;;3.40;;
64037;SDS011;54641;50.168;8.492;2022-07-29T00:46:02;10.70;;;4.30;;
64037;SDS011;54641;50.168;8.492;2022-07-29T00:48:32;6.80;;;4.00;;
64037;SDS011;54641;50.168;8.492;2022-07-29T00:51:04;6.30;;;3.80;;
64037;SDS011;54641;50.168;8.492;2022-07-29T00:53:38;9.00;;;4.20;;
64037;SDS011;54641;50.168;8.492;2022-07-29T00:56:08;7.40;;;4.30;;
64037;SDS011;54641;50.168;8.492;2022-07-29T00:58:39;9.70;;;3.70;;
64037;SDS011;54641;50.168;8.492;2022-07-29T01:01:10;5.40;;;3.60;;
64037;SDS011;54641;50.168;8.492;2022-07-29T01:03:40;5.90;;;3.60;;
64037;SDS011;54641;50.168;8.492;2022-07-29T01:06:11;6.90;;;4.10;;
64037;SDS011;54641;50.168;8.492;2022-07-29T01:08:43;7.00;;;4.00;;
64037;SDS011;54641;50.168;8.492;2022-07-29T01:11:14;5.70;;;3.80;;
64037;SDS011;54641;50.168;8.492;2022-07-29T01:13:46;5.40;;;4.00;;
64037;SDS011;54641;50.168;8.492;2022-07-29T01:16:20;6.60;;;3.70;;
64037;SDS011;54641;50.168;8.492;2022-07-29T01:18:54;6.70;;;4.20;;
64037;SDS011;54641;50.168;8.492;2022-07-29T01:21:45;6.50;;;3.40;;
64037;SDS011;54641;50.168;8.492;2022-07-29T01:24:32;4.60;;;3.20;;
64037;SDS011;54641;50.168;8.492;2022-07-29T01:27:09;6.20;;;3.90;;
64037;SDS011;54641;50.168;8.492;2022-07-29T01:29:52;6.80;;;3.70;;
64037;SDS011;54641;50.168;8.492;2022-07-29T01:32:27;6.40;;;3.50;;
64037;SDS011;54641;50.168;8.492;2022-07-29T01:35:02;9.80;;;3.80;;
64037;SDS011;54641;50.168;8.492;2022-07-29T01:37:36;5.40;;;3.30;;
64037;SDS011;54641;50.168;8.492;2022-07-29T01:40:09;7.80;;;3.80;;
64037;SDS011;54641;50.168;8.492;2022-07-29T01:42:44;6.00;;;3.80;;
64037;SDS011;54641;50.168;8.492;2022-07-29T01:45:21;5.30;;;3.60;;
64037;SDS011;54641;50.168;8.492;2022-07-29T01:47:58;6.20;;;3.60;;
64037;SDS011;54641;50.168;8.492;2022-07-29T01:50:45;7.40;;;3.60;;
64037;SDS011;54641;50.168;8.492;2022-07-29T01:53:21;5.10;;;3.80;;
64037;SDS011;54641;50.168;8.492;2022-07-29T01:56:07;7.70;;;3.50;;
64037;SDS011;54641;50.168;8.492;2022-07-29T01:58:42;6.30;;;4.00;;
64037;SDS011;54641;50.168;8.492;2022-07-29T02:01:17;7.60;;;3.20;;
64037;SDS011;54641;50.168;8.492;2022-07-29T02:04:00;6.20;;;3.60;;
64037;SDS011;54641;50.168;8.492;2022-07-29T02:06:37;10.00;;;3.70;;
64037;SDS011;54641;50.168;8.492;2022-07-29T02:09:16;6.00;;;3.50;;
64037;SDS011;54641;50.168;8.492;2022-07-29T02:11:53;8.70;;;4.10;;
64037;SDS011;54641;50.168;8.492;2022-07-29T02:14:32;6.30;;;3.90;;
64037;SDS011;54641;50.168;8.492;2022-07-29T02:17:11;6.30;;;4.20;;
64037;SDS011;54641;50.168;8.492;2022-07-29T02:19:48;8.10;;;3.60;;
64037;SDS011;54641;50.168;8.492;2022-07-29T02:22:24;8.80;;;3.40;;
64037;SDS011;54641;50.168;8.492;2022-07-29T02:25:00;6.30;;;3.70;;
64037;SDS011;54641;50.168;8.492;2022-07-29T02:27:43;8.40;;;4.20;;
64037;SDS011;54641;50.168;8.492;2022-07-29T02:34:54;6.20;;;3.90;;
64037;SDS011;54641;50.168;8.492;2022-07-29T02:37:29;6.80;;;4.30;;
64037;SDS011;54641;50.168;8.492;2022-07-29T02:40:13;5.60;;;3.90;;
64037;SDS011;54641;50.168;8.492;2022-07-29T02:42:48;4.80;;;4.20;;
64037;SDS011;54641;50.168;8.492;2022-07-29T02:47:55;8.60;;;4.50;;
64037;SDS011;54641;50.168;8.492;2022-07-29T02:50:29;6.20;;;3.80;;
64037;SDS011;54641;50.168;8.492;2022-07-29T02:53:04;6.50;;;4.30;;
64037;SDS011;54641;50.168;8.492;2022-07-29T02:55:39;6.10;;;4.60;;
64037;SDS011;54641;50.168;8.492;2022-07-29T02:58:15;7.20;;;4.30;;
64037;SDS011;54641;50.168;8.492;2022-07-29T03:00:54;6.30;;;4.30;;
64037;SDS011;54641;50.168;8.492;2022-07-29T03:03:27;7.00;;;4.30;;
64037;SDS011;54641;50.168;8.492;2022-07-29T03:06:00;8.80;;;4.00;;
64037;SDS011;54641;50.168;8.492;2022-07-29T03:08:32;5.40;;;4.10;;
64037;SDS011;54641;50.168;8.492;2022-07-29T03:11:02;5.40;;;3.80;;
64037;SDS011;54641;50.168;8.492;2022-07-29T03:13:34;6.30;;;4.10;;
64037;SDS011;54641;50.168;8.492;2022-07-29T03:16:05;5.90;;;4.00;;
64037;SDS011;54641;50.168;8.492;2022-07-29T03:18:42;6.70;;;4.30;;
64037;SDS011;54641;50.168;8.492;2022-07-29T03:21:16;7.10;;;4.30;;
64037;SDS011;54641;50.168;8.492;2022-07-29T03:23:50;8.30;;;5.10;;
64037;SDS011;54641;50.168;8.492;2022-07-29T03:26:49;15.70;;;6.10;;
64037;SDS011;54641;50.168;8.492;2022-07-29T03:29:44;9.80;;;4.70;;
64037;SDS011;54641;50.168;8.492;2022-07-29T03:32:17;9.40;;;4.50;;
64037;SDS011;54641;50.168;8.492;2022-07-29T03:34:52;6.20;;;4.80;;
64037;SDS011;54641;50.168;8.492;2022-07-29T03:37:22;6.10;;;4.50;;
64037;SDS011;54641;50.168;8.492;2022-07-29T03:39:54;9.20;;;4.20;;
64037;SDS011;54641;50.168;8.492;2022-07-29T03:42:27;7.60;;;4.40;;
64037;SDS011;54641;50.168;8.492;2022-07-29T03:45:01;7.20;;;4.50;;
64037;SDS011;54641;50.168;8.492;2022-07-29T03:47:35;7.10;;;4.50;;
64037;SDS011;54641;50.168;8.492;2022-07-29T03:50:18;6.40;;;4.40;;
64037;SDS011;54641;50.168;8.492;2022-07-29T03:52:49;6.20;;;4.70;;
64037;SDS011;54641;50.168;8.492;2022-07-29T03:55:20;6.70;;;4.20;;
64037;SDS011;54641;50.168;8.492;2022-07-29T03:57:51;6.20;;;4.10;;
64037;SDS011;54641;50.168;8.492;2022-07-29T04:00:22;7.20;;;4.40;;
64037;SDS011;54641;50.168;8.492;2022-07-29T04:02:53;9.50;;;5.10;;
64037;SDS011;54641;50.168;8.492;2022-07-29T04:05:24;11.10;;;4.60;;
64037;SDS011;54641;50.168;8.492;2022-07-29T04:07:54;7.90;;;4.80;;
64037;SDS011;54641;50.168;8.492;2022-07-29T04:10:25;7.10;;;3.90;;
64037;SDS011;54641;50.168;8.492;2022-07-29T04:12:59;9.40;;;4.80;;
64037;SDS011;54641;50.168;8.492;2022-07-29T04:15:29;7.10;;;4.40;;
64037;SDS011;54641;50.168;8.492;2022-07-29T04:18:00;7.10;;;4.50;;
64037;SDS011;54641;50.168;8.492;2022-07-29T04:20:30;6.60;;;4.40;;
64037;SDS011;54641;50.168;8.492;2022-07-29T04:23:01;8.00;;;4.30;;
64037;SDS011;54641;50.168;8.492;2022-07-29T04:25:31;7.20;;;4.40;;
64037;SDS011;54641;50.168;8.492;2022-07-29T04:28:05;9.00;;;4.30;;
64037;SDS011;54641;50.168;8.492;2022-07-29T04:30:36;6.60;;;4.50;;
64037;SDS011;54641;50.168;8.492;2022-07-29T04:33:07;6.40;;;4.00;;
64037;SDS011;54641;50.168;8.492;2022-07-29T04:35:37;6.20;;;3.80;;
64037;SDS011;54641;50.168;8.492;2022-07-29T04:38:18;6.10;;;3.50;;
64037;SDS011;54641;50.168;8.492;2022-07-29T04:40:49;8.10;;;4.10;;
64037;SDS011;54641;50.168;8.492;2022-07-29T04:43:21;5.60;;;4.20;;
64037;SDS011;54641;50.168;8.492;2022-07-29T04:45:51;6.70;;;4.10;;
64037;SDS011;54641;50.168;8.492;2022-07-29T04:48:22;8.10;;;4.50;;
64037;SDS011;54641;50.168;8.492;2022-07-29T04:50:55;6.90;;;4.40;;
64037;SDS011;54641;50.168;8.492;2022-07-29T04:53:26;6.70;;;4.30;;
64037;SDS011;54641;50.168;8.492;2022-07-29T04:55:56;5.40;;;3.50;;
64037;SDS011;54641;50.168;8.492;2022-07-29T04:58:27;6.50;;;4.60;;
64037;SDS011;54641;50.168;8.492;2022-07-29T05:00:57;6.50;;;4.30;;
64037;SDS011;54641;50.168;8.492;2022-07-29T05:03:28;7.40;;;4.20;;
64037;SDS011;54641;50.168;8.492;2022-07-29T05:05:58;7.30;;;4.30;;
64037;SDS011;54641;50.168;8.492;2022-07-29T05:08:29;5.90;;;3.50;;
64037;SDS011;54641;50.168;8.492;2022-07-29T05:10:59;7.20;;;3.90;;
64037;SDS011;54641;50.168;8.492;2022-07-29T05:13:40;5.90;;;3.90;;
64037;SDS011;54641;50.168;8.492;2022-07-29T05:16:13;6.40;;;3.80;;
64037;SDS011;54641;50.168;8.492;2022-07-29T05:18:44;6.80;;;4.10;;
64037;SDS011;54641;50.168;8.492;2022-07-29T05:21:14;6.70;;;4.20;;
64037;SDS011;54641;50.168;8.492;2022-07-29T05:23:45;6.30;;;3.80;;
64037;SDS011;54641;50.168;8.492;2022-07-29T05:26:15;8.00;;;4.00;;
64037;SDS011;54641;50.168;8.492;2022-07-29T05:28:45;6.60;;;3.30;;
64037;SDS011;54641;50.168;8.492;2022-07-29T05:31:16;5.60;;;4.00;;
64037;SDS011;54641;50.168;8.492;2022-07-29T05:33:47;5.70;;;3.90;;
64037;SDS011;54641;50.168;8.492;2022-07-29T05:36:17;5.50;;;3.70;;
64037;SDS011;54641;50.168;8.492;2022-07-29T05:38:47;7.50;;;3.90;;
64037;SDS011;54641;50.168;8.492;2022-07-29T05:41:19;6.40;;;4.00;;
64037;SDS011;54641;50.168;8.492;2022-07-29T05:43:50;7.20;;;3.70;;
64037;SDS011;54641;50.168;8.492;2022-07-29T05:46:20;6.00;;;3.50;;
64037;SDS011;54641;50.168;8.492;2022-07-29T05:48:51;7.90;;;3.70;;
64037;SDS011;54641;50.168;8.492;2022-07-29T05:51:21;6.80;;;3.80;;
64037;SDS011;54641;50.168;8.492;2022-07-29T05:53:52;6.50;;;4.00;;
64037;SDS011;54641;50.168;8.492;2022-07-29T05:56:22;4.90;;;3.50;;
64037;SDS011;54641;50.168;8.492;2022-07-29T05:58:52;5.60;;;3.70;;
64037;SDS011;54641;50.168;8.492;2022-07-29T06:01:23;4.80;;;3.70;;
64037;SDS011;54641;50.168;8.492;2022-07-29T06:03:53;8.00;;;3.90;;
64037;SDS011;54641;50.168;8.492;2022-07-29T06:06:24;6.30;;;3.80;;
64037;SDS011;54641;50.168;8.492;2022-07-29T06:08:54;6.70;;;3.70;;
64037;SDS011;54641;50.168;8.492;2022-07-29T06:11:25;6.10;;;3.50;;
64037;SDS011;54641;50.168;8.492;2022-07-29T06:13:55;6.40;;;3.40;;
64037;SDS011;54641;50.168;8.492;2022-07-29T06:16:26;6.10;;;3.40;;
64037;SDS011;54641;50.168;8.492;2022-07-29T06:18:57;5.60;;;3.60;;
64037;SDS011;54641;50.168;8.492;2022-07-29T06:21:27;5.90;;;3.50;;
64037;SDS011;54641;50.168;8.492;2022-07-29T06:23:58;5.40;;;3.30;;
64037;SDS011;54641;50.168;8.492;2022-07-29T06:26:28;7.40;;;3.60;;
64037;SDS011;54641;50.168;8.492;2022-07-29T06:29:06;6.40;;;3.80;;
64037;SDS011;54641;50.168;8.492;2022-07-29T06:31:36;4.70;;;3.10;;
64037;SDS011;54641;50.168;8.492;2022-07-29T06:34:07;7.40;;;3.80;;
64037;SDS011;54641;50.168;8.492;2022-07-29T06:36:39;6.40;;;3.60;;
64037;SDS011;54641;50.168;8.492;2022-07-29T06:39:12;5.00;;;3.50;;
64037;SDS011;54641;50.168;8.492;2022-07-29T06:41:45;8.10;;;3.80;;
64037;SDS011;54641;50.168;8.492;2022-07-29T06:44:18;6.60;;;3.40;;
64037;SDS011;54641;50.168;8.492;2022-07-29T06:46:49;6.00;;;3.30;;
64037;SDS011;54641;50.168;8.492;2022-07-29T06:49:20;6.80;;;3.60;;
64037;SDS011;54641;50.168;8.492;2022-07-29T06:51:54;9.30;;;4.10;;
64037;SDS011;54641;50.168;8.492;2022-07-29T06:54:25;7.30;;;3.70;;
64037;SDS011;54641;50.168;8.492;2022-07-29T06:56:55;7.30;;;3.50;;
64037;SDS011;54641;50.168;8.492;2022-07-29T06:59:26;5.50;;;3.30;;
64037;SDS011;54641;50.168;8.492;2022-07-29T07:02:02;6.00;;;3.80;;
64037;SDS011;54641;50.168;8.492;2022-07-29T07:04:33;6.30;;;3.50;;
64037;SDS011;54641;50.168;8.492;2022-07-29T07:07:03;6.60;;;3.70;;
64037;SDS011;54641;50.168;8.492;2022-07-29T07:09:34;4.70;;;3.40;;
64037;SDS011;54641;50.168;8.492;2022-07-29T07:12:08;6.70;;;3.50;;
64037;SDS011;54641;50.168;8.492;2022-07-29T07:14:40;7.50;;;3.50;;
64037;SDS011;54641;50.168;8.492;2022-07-29T07:17:10;9.80;;;3.90;;
64037;SDS011;54641;50.168;8.492;2022-07-29T07:19:41;6.60;;;3.40;;
64037;SDS011;54641;50.168;8.492;2022-07-29T07:22:12;5.00;;;3.30;;
64037;SDS011;54641;50.168;8.492;2022-07-29T07:24:43;6.30;;;3.40;;
64037;SDS011;54641;50.168;8.492;2022-07-29T07:27:13;6.40;;;3.50;;
64037;SDS011;54641;50.168;8.492;2022-07-29T07:29:44;6.50;;;3.80;;
64037;SDS011;54641;50.168;8.492;2022-07-29T07:32:15;6.90;;;3.70;;
64037;SDS011;54641;50.168;8.492;2022-07-29T07:34:46;6.80;;;3.80;;
64037;SDS011;54641;50.168;8.492;2022-07-29T07:37:18;7.40;;;4.00;;
64037;SDS011;54641;50.168;8.492;2022-07-29T07:42:19;4.80;;;3.20;;
64037;SDS011;54641;50.168;8.492;2022-07-29T07:44:52;6.60;;;3.80;;
64037;SDS011;54641;50.168;8.492;2022-07-29T07:47:40;7.60;;;3.40;;
64037;SDS011;54641;50.168;8.492;2022-07-29T07:50:11;4.60;;;3.30;;
64037;SDS011;54641;50.168;8.492;2022-07-29T07:52:50;5.00;;;3.20;;
64037;SDS011;54641;50.168;8.492;2022-07-29T07:55:23;5.90;;;3.50;;
64037;SDS011;54641;50.168;8.492;2022-07-29T07:57:54;4.40;;;3.10;;
64037;SDS011;54641;50.168;8.492;2022-07-29T08:00:25;7.30;;;3.80;;
64037;SDS011;54641;50.168;8.492;2022-07-29T08:02:57;5.70;;;3.50;;
64037;SDS011;54641;50.168;8.492;2022-07-29T08:05:29;7.70;;;4.00;;
64037;SDS011;54641;50.168;8.492;2022-07-29T08:08:01;5.10;;;3.70;;
64037;SDS011;54641;50.168;8.492;2022-07-29T08:10:32;5.60;;;3.50;;
64037;SDS011;54641;50.168;8.492;2022-07-29T08:13:32;5.60;;;3.40;;
64037;SDS011;54641;50.168;8.492;2022-07-29T08:16:03;6.80;;;3.80;;
64037;SDS011;54641;50.168;8.492;2022-07-29T08:18:43;6.30;;;3.80;;
64037;SDS011;54641;50.168;8.492;2022-07-29T08:21:15;6.00;;;3.80;;
64037;SDS011;54641;50.168;8.492;2022-07-29T08:23:46;7.10;;;3.50;;
64037;SDS011;54641;50.168;8.492;2022-07-29T08:26:29;6.10;;;3.60;;
64037;SDS011;54641;50.168;8.492;2022-07-29T08:29:00;7.80;;;3.70;;
64037;SDS011;54641;50.168;8.492;2022-07-29T08:31:34;6.10;;;3.80;;
64037;SDS011;54641;50.168;8.492;2022-07-29T08:34:05;6.70;;;3.60;;
64037;SDS011;54641;50.168;8.492;2022-07-29T08:42:37;5.60;;;3.50;;
64037;SDS011;54641;50.168;8.492;2022-07-29T08:45:10;6.90;;;3.60;;
64037;SDS011;54641;50.168;8.492;2022-07-29T08:47:44;6.80;;;3.60;;
64037;SDS011;54641;50.168;8.492;2022-07-29T08:50:15;6.70;;;3.30;;
64037;SDS011;54641;50.168;8.492;2022-07-29T08:52:53;7.90;;;3.90;;
64037;SDS011;54641;50.168;8.492;2022-07-29T08:55:31;6.00;;;3.60;;
64037;SDS011;54641;50.168;8.492;2022-07-29T08:58:06;6.80;;;4.10;;
64037;SDS011;54641;50.168;8.492;2022-07-29T09:00:43;6.90;;;3.50;;
64037;SDS011;54641;50.168;8.492;2022-07-29T09:03:19;6.30;;;3.60;;
64037;SDS011;54641;50.168;8.492;2022-07-29T09:05:52;6.00;;;3.70;;
64037;SDS011;54641;50.168;8.492;2022-07-29T09:10:53;8.60;;;3.80;;
64037;SDS011;54641;50.168;8.492;2022-07-29T09:13:26;6.80;;;3.70;;
64037;SDS011;54641;50.168;8.492;2022-07-29T09:15:57;6.20;;;3.80;;
64037;SDS011;54641;50.168;8.492;2022-07-29T09:18:36;4.70;;;3.60;;
64037;SDS011;54641;50.168;8.492;2022-07-29T09:21:09;7.30;;;3.90;;
64037;SDS011;54641;50.168;8.492;2022-07-29T09:24:03;6.40;;;3.90;;
64037;SDS011;54641;50.168;8.492;2022-07-29T09:26:37;3.70;;;3.30;;
64037;SDS011;54641;50.168;8.492;2022-07-29T09:29:14;6.50;;;4.10;;
64037;SDS011;54641;50.168;8.492;2022-07-29T09:31:46;5.40;;;3.80;;
64037;SDS011;54641;50.168;8.492;2022-07-29T09:34:22;5.60;;;3.90;;
64037;SDS011;54641;50.168;8.492;2022-07-29T09:36:59;5.80;;;3.40;;
64037;SDS011;54641;50.168;8.492;2022-07-29T09:39:34;6.30;;;4.00;;
64037;SDS011;54641;50.168;8.492;2022-07-29T09:42:13;7.90;;;4.10;;
64037;SDS011;54641;50.168;8.492;2022-07-29T09:44:49;6.70;;;4.30;;
64037;SDS011;54641;50.168;8.492;2022-07-29T09:47:40;8.40;;;4.10;;
64037;SDS011;54641;50.168;8.492;2022-07-29T09:50:14;7.60;;;3.90;;
64037;SDS011;54641;50.168;8.492;2022-07-29T09:52:52;8.10;;;4.40;;
64037;SDS011;54641;50.168;8.492;2022-07-29T09:55:23;6.00;;;4.50;;
64037;SDS011;54641;50.168;8.492;2022-07-29T09:58:01;7.50;;;4.20;;
64037;SDS011;54641;50.168;8.492;2022-07-29T10:00:49;6.90;;;4.10;;
64037;SDS011;54641;50.168;8.492;2022-07-29T10:03:23;5.40;;;4.20;;
64037;SDS011;54641;50.168;8.492;2022-07-29T10:06:07;7.90;;;4.00;;
64037;SDS011;54641;50.168;8.492;2022-07-29T10:08:44;7.40;;;4.20;;
64037;SDS011;54641;50.168;8.492;2022-07-29T10:11:16;8.50;;;4.60;;
64037;SDS011;54641;50.168;8.492;2022-07-29T10:13:48;5.20;;;3.80;;
64037;SDS011;54641;50.168;8.492;2022-07-29T10:16:20;6.40;;;4.10;;
64037;SDS011;54641;50.168;8.492;2022-07-29T10:19:01;6.00;;;4.20;;
64037;SDS011;54641;50.168;8.492;2022-07-29T10:21:36;7.00;;;4.30;;
64037;SDS011;54641;50.168;8.492;2022-07-29T10:24:13;9.70;;;4.60;;
64037;SDS011;54641;50.168;8.492;2022-07-29T10:26:50;6.80;;;4.60;;
64037;SDS011;54641;50.168;8.492;2022-07-29T10:29:21;6.80;;;4.00;;
64037;SDS011;54641;50.168;8.492;2022-07-29T10:31:59;6.70;;;4.40;;
64037;SDS011;54641;50.168;8.492;2022-07-29T10:34:54;6.10;;;4.70;;
64037;SDS011;54641;50.168;8.492;2022-07-29T10:37:45;8.40;;;4.30;;
64037;SDS011;54641;50.168;8.492;2022-07-29T10:40:39;7.20;;;4.10;;
64037;SDS011;54641;50.168;8.492;2022-07-29T10:43:36;5.90;;;4.30;;
64037;SDS011;54641;50.168;8.492;2022-07-29T10:46:13;7.60;;;4.60;;
64037;SDS011;54641;50.168;8.492;2022-07-29T10:51:58;7.50;;;4.60;;
64037;SDS011;54641;50.168;8.492;2022-07-29T10:54:40;6.40;;;4.20;;
64037;SDS011;54641;50.168;8.492;2022-07-29T10:57:22;7.00;;;4.70;;
64037;SDS011;54641;50.168;8.492;2022-07-29T11:00:31;6.70;;;4.10;;
64037;SDS011;54641;50.168;8.492;2022-07-29T11:03:03;5.90;;;4.30;;
64037;SDS011;54641;50.168;8.492;2022-07-29T11:12:05;7.00;;;4.60;;
64037;SDS011;54641;50.168;8.492;2022-07-29T11:15:22;4.60;;;3.90;;
64037;SDS011;54641;50.168;8.492;2022-07-29T11:18:08;5.90;;;4.30;;
64037;SDS011;54641;50.168;8.492;2022-07-29T11:20:44;6.40;;;4.30;;
64037;SDS011;54641;50.168;8.492;2022-07-29T11:23:19;6.20;;;4.10;;
64037;SDS011;54641;50.168;8.492;2022-07-29T11:26:18;6.80;;;4.20;;
64037;SDS011;54641;50.168;8.492;2022-07-29T11:28:52;5.90;;;4.00;;
64037;SDS011;54641;50.168;8.492;2022-07-29T11:31:37;5.70;;;4.20;;
64037;SDS011;54641;50.168;8.492;2022-07-29T11:39:07;6.10;;;4.40;;
64037;SDS011;54641;50.168;8.492;2022-07-29T11:45:12;7.50;;;4.70;;
64037;SDS011;54641;50.168;8.492;2022-07-29T11:48:05;5.00;;;4.20;;
64037;SDS011;54641;50.168;8.492;2022-07-29T11:50:59;4.60;;;3.90;;
64037;SDS011;54641;50.168;8.492;2022-07-29T11:53:33;6.50;;;4.10;;
64037;SDS011;54641;50.168;8.492;2022-07-29T11:56:19;6.10;;;4.20;;
64037;SDS011;54641;50.168;8.492;2022-07-29T11:59:01;5.20;;;4.00;;
64037;SDS011;54641;50.168;8.492;2022-07-29T12:01:35;8.20;;;4.80;;
64037;SDS011;54641;50.168;8.492;2022-07-29T12:04:08;6.50;;;4.30;;
64037;SDS011;54641;50.168;8.492;2022-07-29T12:06:40;5.30;;;4.30;;
64037;SDS011;54641;50.168;8.492;2022-07-29T12:09:16;6.90;;;4.40;;
64037;SDS011;54641;50.168;8.492;2022-07-29T12:11:48;7.70;;;4.40;;
64037;SDS011;54641;50.168;8.492;2022-07-29T12:14:32;7.20;;;4.50;;
64037;SDS011;54641;50.168;8.492;2022-07-29T12:17:06;5.80;;;4.70;;
64037;SDS011;54641;50.168;8.492;2022-07-29T12:19:43;6.20;;;4.00;;
64037;SDS011;54641;50.168;8.492;2022-07-29T12:22:25;6.80;;;4.30;;
64037;SDS011;54641;50.168;8.492;2022-07-29T12:25:08;8.40;;;4.40;;
64037;SDS011;54641;50.168;8.492;2022-07-29T12:28:04;7.90;;;4.20;;
64037;SDS011;54641;50.168;8.492;2022-07-29T12:30:46;4.90;;;4.40;;
64037;SDS011;54641;50.168;8.492;2022-07-29T12:33:20;7.00;;;4.50;;
64037;SDS011;54641;50.168;8.492;2022-07-29T12:35:58;6.40;;;3.80;;
64037;SDS011;54641;50.168;8.492;2022-07-29T12:38:35;6.30;;;4.40;;
64037;SDS011;54641;50.168;8.492;2022-07-29T12:41:09;7.20;;;4.20;;
64037;SDS011;54641;50.168;8.492;2022-07-29T12:43:45;6.40;;;4.10;;
64037;SDS011;54641;50.168;8.492;2022-07-29T12:46:23;8.80;;;4.40;;
64037;SDS011;54641;50.168;8.492;2022-07-29T12:48:55;4.70;;;4.10;;
64037;SDS011;54641;50.168;8.492;2022-07-29T12:51:29;5.20;;;4.10;;
64037;SDS011;54641;50.168;8.492;2022-07-29T12:54:04;5.30;;;4.50;;
64037;SDS011;54641;50.168;8.492;2022-07-29T12:56:39;8.00;;;4.50;;
64037;SDS011;54641;50.168;8.492;2022-07-29T12:59:13;6.70;;;3.90;;
64037;SDS011;54641;50.168;8.492;2022-07-29T13:01:46;4.60;;;4.10;;
64037;SDS011;54641;50.168;8.492;2022-07-29T13:04:26;5.10;;;4.50;;
64037;SDS011;54641;50.168;8.492;2022-07-29T13:06:59;5.50;;;3.90;;
64037;SDS011;54641;50.168;8.492;2022-07-29T13:09:41;5.10;;;4.20;;
64037;SDS011;54641;50.168;8.492;2022-07-29T13:12:13;5.00;;;4.00;;
64037;SDS011;54641;50.168;8.492;2022-07-29T13:14:48;8.30;;;4.80;;
64037;SDS011;54641;50.168;8.492;2022-07-29T13:17:22;7.20;;;4.00;;
64037;SDS011;54641;50.168;8.492;2022-07-29T13:22:37;6.00;;;4.40;;
64037;SDS011;54641;50.168;8.492;2022-07-29T13:25:15;6.70;;;4.30;;
64037;SDS011;54641;50.168;8.492;2022-07-29T13:27:55;5.60;;;4.40;;
64037;SDS011;54641;50.168;8.492;2022-07-29T13:30:28;8.50;;;4.40;;
64037;SDS011;54641;50.168;8.492;2022-07-29T13:33:02;6.20;;;4.60;;
64037;SDS011;54641;50.168;8.492;2022-07-29T13:35:37;5.40;;;4.70;;
64037;SDS011;54641;50.168;8.492;2022-07-29T13:38:10;5.60;;;4.50;;
64037;SDS011;54641;50.168;8.492;2022-07-29T13:40:42;5.50;;;4.40;;
64037;SDS011;54641;50.168;8.492;2022-07-29T13:43:15;7.00;;;4.70;;
64037;SDS011;54641;50.168;8.492;2022-07-29T13:45:47;6.10;;;4.50;;
64037;SDS011;54641;50.168;8.492;2022-07-29T13:48:22;6.70;;;4.90;;
64037;SDS011;54641;50.168;8.492;2022-07-29T13:50:55;6.40;;;5.00;;
64037;SDS011;54641;50.168;8.492;2022-07-29T13:53:28;5.00;;;4.30;;
64037;SDS011;54641;50.168;8.492;2022-07-29T13:56:02;8.80;;;4.70;;
64037;SDS011;54641;50.168;8.492;2022-07-29T13:58:42;6.20;;;4.30;;
64037;SDS011;54641;50.168;8.492;2022-07-29T14:01:13;8.60;;;5.20;;
64037;SDS011;54641;50.168;8.492;2022-07-29T14:03:47;7.30;;;4.30;;
64037;SDS011;54641;50.168;8.492;2022-07-29T14:06:23;6.40;;;4.70;;
64037;SDS011;54641;50.168;8.492;2022-07-29T14:08:57;5.90;;;4.60;;
64037;SDS011;54641;50.168;8.492;2022-07-29T14:11:35;5.80;;;4.50;;
64037;SDS011;54641;50.168;8.492;2022-07-29T14:14:08;7.10;;;4.60;;
64037;SDS011;54641;50.168;8.492;2022-07-29T14:16:42;5.20;;;4.60;;
64037;SDS011;54641;50.168;8.492;2022-07-29T14:19:19;6.80;;;4.90;;
64037;SDS011;54641;50.168;8.492;2022-07-29T14:21:53;5.40;;;4.80;;
64037;SDS011;54641;50.168;8.492;2022-07-29T14:24:27;7.30;;;4.70;;
64037;SDS011;54641;50.168;8.492;2022-07-29T14:27:05;6.10;;;4.90;;
64037;SDS011;54641;50.168;8.492;2022-07-29T14:29:43;6.90;;;5.10;;
64037;SDS011;54641;50.168;8.492;2022-07-29T14:32:16;5.60;;;5.00;;
64037;SDS011;54641;50.168;8.492;2022-07-29T14:34:50;5.40;;;4.40;;
64037;SDS011;54641;50.168;8.492;2022-07-29T14:37:31;4.40;;;3.10;;
64037;SDS011;54641;50.168;8.492;2022-07-29T14:40:09;5.00;;;3.10;;
64037;SDS011;54641;50.168;8.492;2022-07-29T14:42:59;4.00;;;2.80;;
64037;SDS011;54641;50.168;8.492;2022-07-29T14:45:39;6.00;;;2.50;;
64037;SDS011;54641;50.168;8.492;2022-07-29T14:48:14;3.60;;;2.20;;
64037;SDS011;54641;50.168;8.492;2022-07-29T14:50:47;3.10;;;2.30;;
64037;SDS011;54641;50.168;8.492;2022-07-29T14:53:19;2.50;;;2.10;;
64037;SDS011;54641;50.168;8.492;2022-07-29T14:55:52;3.40;;;2.40;;
64037;SDS011;54641;50.168;8.492;2022-07-29T14:58:45;3.00;;;2.10;;
64037;SDS011;54641;50.168;8.492;2022-07-29T15:01:20;2.80;;;2.40;;
64037;SDS011;54641;50.168;8.492;2022-07-29T15:03:58;4.30;;;2.50;;
64037;SDS011;54641;50.168;8.492;2022-07-29T15:06:32;3.20;;;2.60;;
64037;SDS011;54641;50.168;8.492;2022-07-29T15:09:07;5.30;;;2.90;;
64037;SDS011;54641;50.168;8.492;2022-07-29T15:11:41;3.40;;;2.60;;
64037;SDS011;54641;50.168;8.492;2022-07-29T15:14:13;3.20;;;2.70;;
64037;SDS011;54641;50.168;8.492;2022-07-29T15:16:46;3.70;;;2.50;;
64037;SDS011;54641;50.168;8.492;2022-07-29T15:19:23;5.30;;;2.80;;
64037;SDS011;54641;50.168;8.492;2022-07-29T15:22:00;3.70;;;2.40;;
64037;SDS011;54641;50.168;8.492;2022-07-29T15:24:38;4.20;;;2.90;;
64037;SDS011;54641;50.168;8.492;2022-07-29T15:27:28;3.90;;;3.00;;
64037;SDS011;54641;50.168;8.492;2022-07-29T15:30:08;4.40;;;3.00;;
64037;SDS011;54641;50.168;8.492;2022-07-29T15:33:02;3.40;;;3.00;;
64037;SDS011;54641;50.168;8.492;2022-07-29T15:35:37;4.70;;;3.00;;
64037;SDS011;54641;50.168;8.492;2022-07-29T15:38:15;3.10;;;2.80;;
64037;SDS011;54641;50.168;8.492;2022-07-29T15:40:56;5.60;;;3.10;;
64037;SDS011;54641;50.168;8.492;2022-07-29T15:43:34;4.70;;;2.90;;
64037;SDS011;54641;50.168;8.492;2022-07-29T15:46:09;4.10;;;2.80;;
64037;SDS011;54641;50.168;8.492;2022-07-29T15:49:02;3.90;;;3.00;;
64037;SDS011;54641;50.168;8.492;2022-07-29T15:51:38;4.50;;;2.80;;
64037;SDS011;54641;50.168;8.492;2022-07-29T15:54:12;4.00;;;2.60;;
64037;SDS011;54641;50.168;8.492;2022-07-29T15:56:46;3.50;;;2.30;;
64037;SDS011;54641;50.168;8.492;2022-07-29T15:59:21;3.80;;;2.50;;
64037;SDS011;54641;50.168;8.492;2022-07-29T16:01:58;2.80;;;2.00;;
64037;SDS011;54641;50.168;8.492;2022-07-29T16:04:34;3.30;;;2.30;;
64037;SDS011;54641;50.168;8.492;2022-07-29T16:07:09;3.60;;;2.60;;
64037;SDS011;54641;50.168;8.492;2022-07-29T16:09:43;3.60;;;2.30;;
64037;SDS011;54641;50.168;8.492;2022-07-29T16:12:21;3.60;;;2.30;;
64037;SDS011;54641;50.168;8.492;2022-07-29T16:14:56;4.60;;;2.70;;